sensor_id;sensor_type;location;lat;lon;timestamp;temperature;humidity
28614;DHT22;15806;53.548;9.964;2022-07-29T00:01:02;14.80;99.90
28614;DHT22;15806;53.548;9.964;2022-07-29T00:02:43;14.80;99.90
28614;DHT22;15806;53.548;9.964;2022-07-29T00:04:23;14.80;99.90
28614;DHT22;15806;53.548;9.964;2022-07-29T00:06:04;14.80;99.90
28614;DHT22;15806;53.548;9.964;2022-07-29T00:07:44;14.80;99.90
28614;DHT22;15806;53.548;9.964;2022-07-29T00:09:25;14.80;99.90
28614;DHT22;15806;53.548;9.964;2022-07-29T00:11:05;14.80;99.90
28614;DHT22;15806;53.548;9.964;2022-07-29T00:12:46;14.80;99.90
28614;DHT22;15806;53.548;9.964;2022-07-29T00:14:27;14.70;99.90
28614;DHT22;15806;53.548;9.964;2022-07-29T00:16:08;14.70;99.90
28614;DHT22;15806;53.548;9.964;2022-07-29T00:17:49;14.70;99.90
28614;DHT22;15806;53.548;9.964;2022-07-29T00:19:29;14.60;99.90
28614;DHT22;15806;53.548;9.964;2022-07-29T00:21:10;14.60;99.90
28614;DHT22;15806;53.548;9.964;2022-07-29T00:22:50;14.60;99.90
28614;DHT22;15806;53.548;9.964;2022-07-29T00:24:31;14.60;99.90
28614;DHT22;15806;53.548;9.964;2022-07-29T00:26:11;14.60;99.90
28614;DHT22;15806;53.548;9.964;2022-07-29T00:27:52;14.60;99.90
28614;DHT22;15806;53.548;9.964;2022-07-29T00:29:32;14.60;99.90
28614;DHT22;15806;53.548;9.964;2022-07-29T00:31:13;14.60;99.90
28614;DHT22;15806;53.548;9.964;2022-07-29T00:32:53;14.70;99.90
28614;DHT22;15806;53.548;9.964;2022-07-29T00:34:34;14.70;99.90
28614;DHT22;15806;53.548;9.964;2022-07-29T00:36:14;14.70;99.90
28614;DHT22;15806;53.548;9.964;2022-07-29T00:37:55;14.80;99.90
28614;DHT22;15806;53.548;9.964;2022-07-29T00:39:35;14.70;99.90
28614;DHT22;15806;53.548;9.964;2022-07-29T00:41:17;14.70;99.90
28614;DHT22;15806;53.548;9.964;2022-07-29T00:42:57;14.70;99.90
28614;DHT22;15806;53.548;9.964;2022-07-29T00:44:39;14.70;99.90
28614;DHT22;15806;53.548;9.964;2022-07-29T00:46:20;14.70;99.90
28614;DHT22;15806;53.548;9.964;2022-07-29T00:48:01;14.60;99.90
28614;DHT22;15806;53.548;9.964;2022-07-29T00:49:42;14.60;99.90
28614;DHT22;15806;53.548;9.964;2022-07-29T00:51:22;14.60;99.90
28614;DHT22;15806;53.548;9.964;2022-07-29T00:53:08;14.60;99.90
28614;DHT22;15806;53.548;9.964;2022-07-29T00:54:49;14.60;99.90
28614;DHT22;15806;53.548;9.964;2022-07-29T00:56:33;14.60;99.90
28614;DHT22;15806;53.548;9.964;2022-07-29T00:58:14;14.60;99.90
28614;DHT22;15806;53.548;9.964;2022-07-29T00:59:54;14.60;99.90
28614;DHT22;15806;53.548;9.964;2022-07-29T01:01:35;14.60;99.90
28614;DHT22;15806;53.548;9.964;2022-07-29T01:03:15;14.60;99.90
28614;DHT22;15806;53.548;9.964;2022-07-29T01:04:56;14.50;99.90
28614;DHT22;15806;53.548;9.964;2022-07-29T01:06:37;14.60;99.90
28614;DHT22;15806;53.548;9.964;2022-07-29T01:08:18;14.60;99.90
28614;DHT22;15806;53.548;9.964;2022-07-29T01:10:02;14.70;99.90
28614;DHT22;15806;53.548;9.964;2022-07-29T01:11:43;14.60;99.90
28614;DHT22;15806;53.548;9.964;2022-07-29T01:13:25;14.60;99.90
28614;DHT22;15806;53.548;9.964;2022-07-29T01:15:08;14.60;99.90
28614;DHT22;15806;53.548;9.964;2022-07-29T01:16:54;14.70;99.90
28614;DHT22;15806;53.548;9.964;2022-07-29T01:18:44;14.60;99.90
28614;DHT22;15806;53.548;9.964;2022-07-29T01:25:13;14.60;99.90
28614;DHT22;15806;53.548;9.964;2022-07-29T01:30:31;14.60;99.90
28614;DHT22;15806;53.548;9.964;2022-07-29T01:32:17;14.60;99.90
28614;DHT22;15806;53.548;9.964;2022-07-29T01:34:02;14.70;99.90
28614;DHT22;15806;53.548;9.964;2022-07-29T01:35:44;14.60;99.90
28614;DHT22;15806;53.548;9.964;2022-07-29T01:37:29;14.60;99.90
28614;DHT22;15806;53.548;9.964;2022-07-29T01:41:09;14.60;99.90
28614;DHT22;15806;53.548;9.964;2022-07-29T01:42:57;14.60;99.90
28614;DHT22;15806;53.548;9.964;2022-07-29T01:44:53;14.60;99.90
28614;DHT22;15806;53.548;9.964;2022-07-29T01:46:39;14.60;99.90
28614;DHT22;15806;53.548;9.964;2022-07-29T01:48:24;14.60;99.90
28614;DHT22;15806;53.548;9.964;2022-07-29T01:50:10;14.60;99.90
28614;DHT22;15806;53.548;9.964;2022-07-29T01:52:00;14.60;99.90
28614;DHT22;15806;53.548;9.964;2022-07-29T01:53:59;14.60;99.90
28614;DHT22;15806;53.548;9.964;2022-07-29T01:55:44;14.50;99.90
28614;DHT22;15806;53.548;9.964;2022-07-29T01:57:28;14.50;99.90
28614;DHT22;15806;53.548;9.964;2022-07-29T01:59:10;14.60;99.90
28614;DHT22;15806;53.548;9.964;2022-07-29T02:00:51;14.60;99.90
28614;DHT22;15806;53.548;9.964;2022-07-29T02:02:32;14.60;99.90
28614;DHT22;15806;53.548;9.964;2022-07-29T02:04:16;14.50;99.90
28614;DHT22;15806;53.548;9.964;2022-07-29T02:06:00;14.50;99.90
28614;DHT22;15806;53.548;9.964;2022-07-29T02:07:43;14.60;99.90
28614;DHT22;15806;53.548;9.964;2022-07-29T02:09:25;14.50;99.90
28614;DHT22;15806;53.548;9.964;2022-07-29T02:11:07;14.50;99.90
28614;DHT22;15806;53.548;9.964;2022-07-29T02:12:48;14.50;99.90
28614;DHT22;15806;53.548;9.964;2022-07-29T02:14:33;14.60;99.90
28614;DHT22;15806;53.548;9.964;2022-07-29T02:16:15;14.50;99.90
28614;DHT22;15806;53.548;9.964;2022-07-29T02:18:07;14.50;99.90
28614;DHT22;15806;53.548;9.964;2022-07-29T02:19:49;14.50;99.90
28614;DHT22;15806;53.548;9.964;2022-07-29T02:21:30;14.50;99.90
28614;DHT22;15806;53.548;9.964;2022-07-29T02:23:17;14.50;99.90
28614;DHT22;15806;53.548;9.964;2022-07-29T02:24:59;14.40;99.90
28614;DHT22;15806;53.548;9.964;2022-07-29T02:26:41;14.40;99.90
28614;DHT22;15806;53.548;9.964;2022-07-29T02:28:25;14.30;99.90
28614;DHT22;15806;53.548;9.964;2022-07-29T02:30:07;14.30;99.90
28614;DHT22;15806;53.548;9.964;2022-07-29T02:31:49;14.30;99.90
28614;DHT22;15806;53.548;9.964;2022-07-29T02:33:40;14.30;99.90
28614;DHT22;15806;53.548;9.964;2022-07-29T02:35:21;14.30;99.90
28614;DHT22;15806;53.548;9.964;2022-07-29T02:37:03;14.30;99.90
28614;DHT22;15806;53.548;9.964;2022-07-29T02:38:44;14.20;99.90
28614;DHT22;15806;53.548;9.964;2022-07-29T02:40:25;14.20;99.90
28614;DHT22;15806;53.548;9.964;2022-07-29T02:42:10;14.20;99.90
28614;DHT22;15806;53.548;9.964;2022-07-29T02:43:57;14.20;99.90
28614;DHT22;15806;53.548;9.964;2022-07-29T02:45:38;14.20;99.90
28614;DHT22;15806;53.548;9.964;2022-07-29T02:49:16;14.20;99.90
28614;DHT22;15806;53.548;9.964;2022-07-29T02:51:06;14.20;99.90
28614;DHT22;15806;53.548;9.964;2022-07-29T02:53:02;14.30;99.90
28614;DHT22;15806;53.548;9.964;2022-07-29T02:55:30;14.20;99.90
28614;DHT22;15806;53.548;9.964;2022-07-29T02:57:09;14.20;99.90
28614;DHT22;15806;53.548;9.964;2022-07-29T02:58:55;14.20;99.90
28614;DHT22;15806;53.548;9.964;2022-07-29T03:00:37;14.20;99.90
28614;DHT22;15806;53.548;9.964;2022-07-29T03:02:20;14.20;99.90
28614;DHT22;15806;53.548;9.964;2022-07-29T03:04:03;14.20;99.90
28614;DHT22;15806;53.548;9.964;2022-07-29T03:05:44;14.20;99.90
28614;DHT22;15806;53.548;9.964;2022-07-29T03:07:25;14.20;99.90
28614;DHT22;15806;53.548;9.964;2022-07-29T03:09:07;14.20;99.90
28614;DHT22;15806;53.548;9.964;2022-07-29T03:10:48;14.20;99.90
28614;DHT22;15806;53.548;9.964;2022-07-29T03:12:29;14.20;99.90
28614;DHT22;15806;53.548;9.964;2022-07-29T03:14:10;14.30;99.90
28614;DHT22;15806;53.548;9.964;2022-07-29T03:15:52;14.20;99.90
28614;DHT22;15806;53.548;9.964;2022-07-29T03:17:34;14.20;99.90
28614;DHT22;15806;53.548;9.964;2022-07-29T03:19:14;14.30;99.90
28614;DHT22;15806;53.548;9.964;2022-07-29T03:20:55;14.30;99.90
28614;DHT22;15806;53.548;9.964;2022-07-29T03:22:40;14.30;99.90
28614;DHT22;15806;53.548;9.964;2022-07-29T03:24:33;14.20;99.90
28614;DHT22;15806;53.548;9.964;2022-07-29T03:26:14;14.30;99.90
28614;DHT22;15806;53.548;9.964;2022-07-29T03:27:54;14.30;99.90
28614;DHT22;15806;53.548;9.964;2022-07-29T03:29:35;14.30;99.90
28614;DHT22;15806;53.548;9.964;2022-07-29T03:31:15;14.30;99.90
28614;DHT22;15806;53.548;9.964;2022-07-29T03:32:56;14.30;99.90
28614;DHT22;15806;53.548;9.964;2022-07-29T03:34:37;14.30;99.90
28614;DHT22;15806;53.548;9.964;2022-07-29T03:36:17;14.30;99.90
28614;DHT22;15806;53.548;9.964;2022-07-29T03:37:58;14.40;99.90
28614;DHT22;15806;53.548;9.964;2022-07-29T03:39:41;14.40;99.90
28614;DHT22;15806;53.548;9.964;2022-07-29T03:41:23;14.40;99.90
28614;DHT22;15806;53.548;9.964;2022-07-29T03:43:05;14.30;99.90
28614;DHT22;15806;53.548;9.964;2022-07-29T03:44:47;14.40;99.90
28614;DHT22;15806;53.548;9.964;2022-07-29T03:46:30;14.40;99.90
28614;DHT22;15806;53.548;9.964;2022-07-29T03:48:15;14.40;99.90
28614;DHT22;15806;53.548;9.964;2022-07-29T03:50:00;14.40;99.90
28614;DHT22;15806;53.548;9.964;2022-07-29T03:51:42;14.40;99.90
28614;DHT22;15806;53.548;9.964;2022-07-29T03:53:22;14.40;99.90
28614;DHT22;15806;53.548;9.964;2022-07-29T03:55:03;14.40;99.90
28614;DHT22;15806;53.548;9.964;2022-07-29T03:56:46;14.40;99.90
28614;DHT22;15806;53.548;9.964;2022-07-29T03:58:30;14.40;99.90
28614;DHT22;15806;53.548;9.964;2022-07-29T04:00:12;14.50;99.90
28614;DHT22;15806;53.548;9.964;2022-07-29T04:01:52;14.40;99.90
28614;DHT22;15806;53.548;9.964;2022-07-29T04:03:34;14.50;99.90
28614;DHT22;15806;53.548;9.964;2022-07-29T04:05:15;14.40;99.90
28614;DHT22;15806;53.548;9.964;2022-07-29T04:06:56;14.40;99.90
28614;DHT22;15806;53.548;9.964;2022-07-29T04:08:37;14.40;99.90
28614;DHT22;15806;53.548;9.964;2022-07-29T04:10:17;14.40;99.90
28614;DHT22;15806;53.548;9.964;2022-07-29T04:11:58;14.50;99.90
28614;DHT22;15806;53.548;9.964;2022-07-29T04:13:39;14.50;99.90
28614;DHT22;15806;53.548;9.964;2022-07-29T04:15:19;14.50;99.90
28614;DHT22;15806;53.548;9.964;2022-07-29T04:17:01;14.50;99.90
28614;DHT22;15806;53.548;9.964;2022-07-29T04:18:42;14.50;99.90
28614;DHT22;15806;53.548;9.964;2022-07-29T04:20:22;14.60;99.90
28614;DHT22;15806;53.548;9.964;2022-07-29T04:22:03;14.70;99.90
28614;DHT22;15806;53.548;9.964;2022-07-29T04:23:43;14.70;99.90
28614;DHT22;15806;53.548;9.964;2022-07-29T04:25:24;14.70;99.90
28614;DHT22;15806;53.548;9.964;2022-07-29T04:27:05;14.60;99.90
28614;DHT22;15806;53.548;9.964;2022-07-29T04:28:46;14.60;99.90
28614;DHT22;15806;53.548;9.964;2022-07-29T04:30:27;14.60;99.90
28614;DHT22;15806;53.548;9.964;2022-07-29T04:32:08;14.70;99.90
28614;DHT22;15806;53.548;9.964;2022-07-29T04:33:48;14.70;99.90
28614;DHT22;15806;53.548;9.964;2022-07-29T04:35:29;14.70;99.90
28614;DHT22;15806;53.548;9.964;2022-07-29T04:37:10;14.70;99.90
28614;DHT22;15806;53.548;9.964;2022-07-29T04:38:51;14.80;99.90
28614;DHT22;15806;53.548;9.964;2022-07-29T04:40:31;14.90;99.90
28614;DHT22;15806;53.548;9.964;2022-07-29T04:42:12;14.90;99.90
28614;DHT22;15806;53.548;9.964;2022-07-29T04:43:53;14.90;99.90
28614;DHT22;15806;53.548;9.964;2022-07-29T04:45:33;14.90;99.90
28614;DHT22;15806;53.548;9.964;2022-07-29T04:47:13;15.00;99.90
28614;DHT22;15806;53.548;9.964;2022-07-29T04:48:54;14.90;99.90
28614;DHT22;15806;53.548;9.964;2022-07-29T04:50:37;15.00;99.90
28614;DHT22;15806;53.548;9.964;2022-07-29T04:52:17;15.10;99.90
28614;DHT22;15806;53.548;9.964;2022-07-29T04:53:58;15.10;99.90
28614;DHT22;15806;53.548;9.964;2022-07-29T04:55:39;15.10;99.90
28614;DHT22;15806;53.548;9.964;2022-07-29T04:57:19;15.00;99.90
28614;DHT22;15806;53.548;9.964;2022-07-29T04:59:00;15.10;99.90
28614;DHT22;15806;53.548;9.964;2022-07-29T05:00:40;15.00;99.90
28614;DHT22;15806;53.548;9.964;2022-07-29T05:02:21;15.10;99.90
28614;DHT22;15806;53.548;9.964;2022-07-29T05:04:01;15.10;99.90
28614;DHT22;15806;53.548;9.964;2022-07-29T05:05:42;15.10;99.90
28614;DHT22;15806;53.548;9.964;2022-07-29T05:07:22;15.10;99.90
28614;DHT22;15806;53.548;9.964;2022-07-29T05:09:03;15.00;99.90
28614;DHT22;15806;53.548;9.964;2022-07-29T05:10:44;15.00;99.90
28614;DHT22;15806;53.548;9.964;2022-07-29T05:12:25;15.10;99.90
28614;DHT22;15806;53.548;9.964;2022-07-29T05:14:06;15.10;99.90
28614;DHT22;15806;53.548;9.964;2022-07-29T05:15:47;15.20;99.90
28614;DHT22;15806;53.548;9.964;2022-07-29T05:17:27;15.10;99.90
28614;DHT22;15806;53.548;9.964;2022-07-29T05:19:08;15.20;99.90
28614;DHT22;15806;53.548;9.964;2022-07-29T05:20:48;15.20;99.90
28614;DHT22;15806;53.548;9.964;2022-07-29T05:22:29;15.20;99.90
28614;DHT22;15806;53.548;9.964;2022-07-29T05:24:10;15.20;99.90
28614;DHT22;15806;53.548;9.964;2022-07-29T05:25:50;15.30;99.90
28614;DHT22;15806;53.548;9.964;2022-07-29T05:27:31;15.30;99.90
28614;DHT22;15806;53.548;9.964;2022-07-29T05:29:11;15.40;99.90
28614;DHT22;15806;53.548;9.964;2022-07-29T05:30:52;15.40;99.90
28614;DHT22;15806;53.548;9.964;2022-07-29T05:32:32;15.40;99.90
28614;DHT22;15806;53.548;9.964;2022-07-29T05:34:13;15.50;99.90
28614;DHT22;15806;53.548;9.964;2022-07-29T05:35:53;15.50;99.90
28614;DHT22;15806;53.548;9.964;2022-07-29T05:37:34;15.40;99.90
28614;DHT22;15806;53.548;9.964;2022-07-29T05:39:15;15.40;99.90
28614;DHT22;15806;53.548;9.964;2022-07-29T05:40:57;15.40;99.90
28614;DHT22;15806;53.548;9.964;2022-07-29T05:42:39;15.40;99.90
28614;DHT22;15806;53.548;9.964;2022-07-29T05:44:19;15.30;99.90
28614;DHT22;15806;53.548;9.964;2022-07-29T05:46:00;15.40;99.90
28614;DHT22;15806;53.548;9.964;2022-07-29T05:47:41;15.50;99.90
28614;DHT22;15806;53.548;9.964;2022-07-29T05:49:21;15.60;99.90
28614;DHT22;15806;53.548;9.964;2022-07-29T05:51:02;15.50;99.90
28614;DHT22;15806;53.548;9.964;2022-07-29T05:52:42;15.70;99.90
28614;DHT22;15806;53.548;9.964;2022-07-29T05:54:23;15.90;99.90
28614;DHT22;15806;53.548;9.964;2022-07-29T05:56:04;15.90;99.90
28614;DHT22;15806;53.548;9.964;2022-07-29T05:57:45;16.00;99.90
28614;DHT22;15806;53.548;9.964;2022-07-29T05:59:25;16.10;99.90
28614;DHT22;15806;53.548;9.964;2022-07-29T06:01:06;16.30;99.90
28614;DHT22;15806;53.548;9.964;2022-07-29T06:02:46;16.20;99.90
28614;DHT22;15806;53.548;9.964;2022-07-29T06:04:27;16.30;99.90
28614;DHT22;15806;53.548;9.964;2022-07-29T06:06:07;16.30;99.90
28614;DHT22;15806;53.548;9.964;2022-07-29T06:07:48;16.20;99.90
28614;DHT22;15806;53.548;9.964;2022-07-29T06:09:29;16.20;99.90
28614;DHT22;15806;53.548;9.964;2022-07-29T06:11:10;16.30;99.90
28614;DHT22;15806;53.548;9.964;2022-07-29T06:12:50;16.60;99.90
28614;DHT22;15806;53.548;9.964;2022-07-29T06:14:32;16.70;99.90
28614;DHT22;15806;53.548;9.964;2022-07-29T06:16:13;16.70;99.90
28614;DHT22;15806;53.548;9.964;2022-07-29T06:17:53;16.70;99.90
28614;DHT22;15806;53.548;9.964;2022-07-29T06:19:34;16.70;99.90
28614;DHT22;15806;53.548;9.964;2022-07-29T06:21:15;16.80;99.90
28614;DHT22;15806;53.548;9.964;2022-07-29T06:22:56;16.90;99.90
28614;DHT22;15806;53.548;9.964;2022-07-29T06:24:37;16.80;99.90
28614;DHT22;15806;53.548;9.964;2022-07-29T06:26:17;16.70;99.90
28614;DHT22;15806;53.548;9.964;2022-07-29T06:27:58;16.60;99.90
28614;DHT22;15806;53.548;9.964;2022-07-29T06:29:38;16.50;99.90
28614;DHT22;15806;53.548;9.964;2022-07-29T06:31:19;16.50;99.90
28614;DHT22;15806;53.548;9.964;2022-07-29T06:32:59;16.60;99.90
28614;DHT22;15806;53.548;9.964;2022-07-29T06:34:40;16.80;99.90
28614;DHT22;15806;53.548;9.964;2022-07-29T06:36:20;17.00;99.90
28614;DHT22;15806;53.548;9.964;2022-07-29T06:38:02;17.00;99.90
28614;DHT22;15806;53.548;9.964;2022-07-29T06:39:43;17.00;99.90
28614;DHT22;15806;53.548;9.964;2022-07-29T06:41:23;16.90;99.90
28614;DHT22;15806;53.548;9.964;2022-07-29T06:43:04;17.10;99.90
28614;DHT22;15806;53.548;9.964;2022-07-29T06:44:45;17.20;99.90
28614;DHT22;15806;53.548;9.964;2022-07-29T06:46:25;17.30;99.90
28614;DHT22;15806;53.548;9.964;2022-07-29T06:48:06;17.30;99.90
28614;DHT22;15806;53.548;9.964;2022-07-29T06:49:46;17.40;99.90
28614;DHT22;15806;53.548;9.964;2022-07-29T06:51:27;17.60;99.90
28614;DHT22;15806;53.548;9.964;2022-07-29T06:53:07;17.60;99.90
28614;DHT22;15806;53.548;9.964;2022-07-29T06:54:48;17.80;99.90
28614;DHT22;15806;53.548;9.964;2022-07-29T06:56:33;17.80;99.90
28614;DHT22;15806;53.548;9.964;2022-07-29T06:58:13;17.80;99.90
28614;DHT22;15806;53.548;9.964;2022-07-29T06:59:56;17.70;99.90
28614;DHT22;15806;53.548;9.964;2022-07-29T07:01:42;17.60;99.90
28614;DHT22;15806;53.548;9.964;2022-07-29T07:03:23;17.60;99.90
28614;DHT22;15806;53.548;9.964;2022-07-29T07:05:04;17.70;99.90
28614;DHT22;15806;53.548;9.964;2022-07-29T07:06:44;17.60;99.90
28614;DHT22;15806;53.548;9.964;2022-07-29T07:08:25;17.60;99.90
28614;DHT22;15806;53.548;9.964;2022-07-29T07:10:06;17.70;99.90
28614;DHT22;15806;53.548;9.964;2022-07-29T07:11:46;17.80;99.90
28614;DHT22;15806;53.548;9.964;2022-07-29T07:13:27;17.80;99.90
28614;DHT22;15806;53.548;9.964;2022-07-29T07:15:08;17.90;99.90
28614;DHT22;15806;53.548;9.964;2022-07-29T07:16:48;18.00;99.90
28614;DHT22;15806;53.548;9.964;2022-07-29T07:18:29;18.20;99.90
28614;DHT22;15806;53.548;9.964;2022-07-29T07:20:10;18.10;99.90
28614;DHT22;15806;53.548;9.964;2022-07-29T07:21:50;17.80;99.90
28614;DHT22;15806;53.548;9.964;2022-07-29T07:23:31;17.70;99.90
28614;DHT22;15806;53.548;9.964;2022-07-29T07:25:12;17.70;99.90
28614;DHT22;15806;53.548;9.964;2022-07-29T07:26:53;17.70;99.90
28614;DHT22;15806;53.548;9.964;2022-07-29T07:28:33;17.80;99.90
28614;DHT22;15806;53.548;9.964;2022-07-29T07:30:14;17.80;99.90
28614;DHT22;15806;53.548;9.964;2022-07-29T07:31:54;18.00;99.90
28614;DHT22;15806;53.548;9.964;2022-07-29T07:33:35;18.00;99.90
28614;DHT22;15806;53.548;9.964;2022-07-29T07:35:16;18.20;99.90
28614;DHT22;15806;53.548;9.964;2022-07-29T07:36:56;18.40;99.90
28614;DHT22;15806;53.548;9.964;2022-07-29T07:38:37;18.50;99.90
28614;DHT22;15806;53.548;9.964;2022-07-29T07:40:18;18.60;99.90
28614;DHT22;15806;53.548;9.964;2022-07-29T07:41:58;18.70;99.90
28614;DHT22;15806;53.548;9.964;2022-07-29T07:43:39;18.80;99.90
28614;DHT22;15806;53.548;9.964;2022-07-29T07:45:20;18.80;99.90
28614;DHT22;15806;53.548;9.964;2022-07-29T07:47:00;18.70;99.90
28614;DHT22;15806;53.548;9.964;2022-07-29T07:48:41;18.90;99.90
28614;DHT22;15806;53.548;9.964;2022-07-29T07:50:21;19.00;99.90
28614;DHT22;15806;53.548;9.964;2022-07-29T07:52:02;19.20;99.90
28614;DHT22;15806;53.548;9.964;2022-07-29T07:53:43;19.40;99.90
28614;DHT22;15806;53.548;9.964;2022-07-29T07:55:24;19.70;99.90
28614;DHT22;15806;53.548;9.964;2022-07-29T07:57:04;19.90;99.90
28614;DHT22;15806;53.548;9.964;2022-07-29T07:58:45;20.40;99.90
28614;DHT22;15806;53.548;9.964;2022-07-29T08:00:26;20.80;99.90
28614;DHT22;15806;53.548;9.964;2022-07-29T08:02:06;21.30;99.90
28614;DHT22;15806;53.548;9.964;2022-07-29T08:03:47;21.60;99.90
28614;DHT22;15806;53.548;9.964;2022-07-29T08:05:28;21.50;99.90
28614;DHT22;15806;53.548;9.964;2022-07-29T08:07:08;21.40;99.90
28614;DHT22;15806;53.548;9.964;2022-07-29T08:08:49;21.30;99.90
28614;DHT22;15806;53.548;9.964;2022-07-29T08:10:29;21.00;99.90
28614;DHT22;15806;53.548;9.964;2022-07-29T08:12:10;20.70;99.90
28614;DHT22;15806;53.548;9.964;2022-07-29T08:13:50;21.40;99.90
28614;DHT22;15806;53.548;9.964;2022-07-29T08:15:31;22.20;99.90
28614;DHT22;15806;53.548;9.964;2022-07-29T08:17:12;22.00;99.90
28614;DHT22;15806;53.548;9.964;2022-07-29T08:18:52;22.10;99.90
28614;DHT22;15806;53.548;9.964;2022-07-29T08:20:33;22.40;99.90
28614;DHT22;15806;53.548;9.964;2022-07-29T08:22:13;23.30;99.90
28614;DHT22;15806;53.548;9.964;2022-07-29T08:23:54;24.40;99.90
28614;DHT22;15806;53.548;9.964;2022-07-29T08:25:38;25.90;99.90
28614;DHT22;15806;53.548;9.964;2022-07-29T08:27:19;26.60;99.90
28614;DHT22;15806;53.548;9.964;2022-07-29T08:28:59;27.30;99.90
28614;DHT22;15806;53.548;9.964;2022-07-29T08:30:40;28.50;99.90
28614;DHT22;15806;53.548;9.964;2022-07-29T08:32:21;29.50;99.90
28614;DHT22;15806;53.548;9.964;2022-07-29T08:34:03;29.40;92.50
28614;DHT22;15806;53.548;9.964;2022-07-29T08:35:45;29.20;94.60
28614;DHT22;15806;53.548;9.964;2022-07-29T08:37:25;28.50;98.10
28614;DHT22;15806;53.548;9.964;2022-07-29T08:39:06;28.50;98.50
28614;DHT22;15806;53.548;9.964;2022-07-29T08:40:47;29.00;95.50
28614;DHT22;15806;53.548;9.964;2022-07-29T08:42:27;29.60;94.70
28614;DHT22;15806;53.548;9.964;2022-07-29T08:44:09;30.30;83.60
28614;DHT22;15806;53.548;9.964;2022-07-29T08:45:50;29.50;81.90
28614;DHT22;15806;53.548;9.964;2022-07-29T08:47:31;29.80;85.40
28614;DHT22;15806;53.548;9.964;2022-07-29T08:49:13;30.00;74.70
28614;DHT22;15806;53.548;9.964;2022-07-29T08:50:55;30.40;69.60
28614;DHT22;15806;53.548;9.964;2022-07-29T08:52:37;30.20;67.70
28614;DHT22;15806;53.548;9.964;2022-07-29T08:54:18;29.10;70.80
28614;DHT22;15806;53.548;9.964;2022-07-29T08:56:00;27.40;95.40
28614;DHT22;15806;53.548;9.964;2022-07-29T08:57:41;24.70;99.90
28614;DHT22;15806;53.548;9.964;2022-07-29T08:59:24;23.50;99.90
28614;DHT22;15806;53.548;9.964;2022-07-29T09:01:06;23.60;99.90
28614;DHT22;15806;53.548;9.964;2022-07-29T09:02:53;24.00;99.90
28614;DHT22;15806;53.548;9.964;2022-07-29T09:04:36;23.50;99.90
28614;DHT22;15806;53.548;9.964;2022-07-29T09:06:18;23.00;99.90
28614;DHT22;15806;53.548;9.964;2022-07-29T09:08:01;22.70;99.90
28614;DHT22;15806;53.548;9.964;2022-07-29T09:09:42;22.50;99.90
28614;DHT22;15806;53.548;9.964;2022-07-29T09:11:23;22.60;99.90
28614;DHT22;15806;53.548;9.964;2022-07-29T09:13:04;22.90;99.90
28614;DHT22;15806;53.548;9.964;2022-07-29T09:14:45;23.00;99.90
28614;DHT22;15806;53.548;9.964;2022-07-29T09:16:25;22.90;99.90
28614;DHT22;15806;53.548;9.964;2022-07-29T09:18:06;23.20;99.90
28614;DHT22;15806;53.548;9.964;2022-07-29T09:19:46;23.60;99.90
28614;DHT22;15806;53.548;9.964;2022-07-29T09:21:40;23.30;99.90
28614;DHT22;15806;53.548;9.964;2022-07-29T09:23:20;23.00;99.90
28614;DHT22;15806;53.548;9.964;2022-07-29T09:25:01;23.10;99.90
28614;DHT22;15806;53.548;9.964;2022-07-29T09:26:44;23.20;99.90
28614;DHT22;15806;53.548;9.964;2022-07-29T09:28:25;23.10;99.90
28614;DHT22;15806;53.548;9.964;2022-07-29T09:30:07;23.10;99.90
28614;DHT22;15806;53.548;9.964;2022-07-29T09:31:50;22.70;99.90
28614;DHT22;15806;53.548;9.964;2022-07-29T09:33:32;22.40;99.90
28614;DHT22;15806;53.548;9.964;2022-07-29T09:35:19;22.30;99.90
28614;DHT22;15806;53.548;9.964;2022-07-29T09:37:00;22.60;99.90
28614;DHT22;15806;53.548;9.964;2022-07-29T09:38:40;22.70;99.90
28614;DHT22;15806;53.548;9.964;2022-07-29T09:40:23;22.60;99.90
28614;DHT22;15806;53.548;9.964;2022-07-29T09:42:05;22.70;99.90
28614;DHT22;15806;53.548;9.964;2022-07-29T09:43:56;22.80;99.90
28614;DHT22;15806;53.548;9.964;2022-07-29T09:45:37;22.60;99.90
28614;DHT22;15806;53.548;9.964;2022-07-29T09:47:18;22.50;99.90
28614;DHT22;15806;53.548;9.964;2022-07-29T09:49:05;22.70;99.90
28614;DHT22;15806;53.548;9.964;2022-07-29T09:50:47;22.90;99.90
28614;DHT22;15806;53.548;9.964;2022-07-29T09:52:29;22.90;99.90
28614;DHT22;15806;53.548;9.964;2022-07-29T09:54:24;23.00;99.90
28614;DHT22;15806;53.548;9.964;2022-07-29T09:56:05;22.80;99.90
28614;DHT22;15806;53.548;9.964;2022-07-29T09:57:48;22.80;99.90
28614;DHT22;15806;53.548;9.964;2022-07-29T09:59:28;23.10;99.90
28614;DHT22;15806;53.548;9.964;2022-07-29T10:01:09;23.20;99.90
28614;DHT22;15806;53.548;9.964;2022-07-29T10:02:50;22.90;99.90
28614;DHT22;15806;53.548;9.964;2022-07-29T10:04:38;22.70;99.90
28614;DHT22;15806;53.548;9.964;2022-07-29T10:06:18;22.90;99.90
28614;DHT22;15806;53.548;9.964;2022-07-29T10:07:59;22.90;99.90
28614;DHT22;15806;53.548;9.964;2022-07-29T10:09:52;22.80;99.90
28614;DHT22;15806;53.548;9.964;2022-07-29T10:11:33;22.60;99.90
28614;DHT22;15806;53.548;9.964;2022-07-29T10:13:14;22.50;99.90
28614;DHT22;15806;53.548;9.964;2022-07-29T10:14:55;22.60;99.90
28614;DHT22;15806;53.548;9.964;2022-07-29T10:16:38;22.70;99.90
28614;DHT22;15806;53.548;9.964;2022-07-29T10:18:20;22.70;99.90
28614;DHT22;15806;53.548;9.964;2022-07-29T10:20:01;22.70;99.90
28614;DHT22;15806;53.548;9.964;2022-07-29T10:23:24;22.50;99.90
28614;DHT22;15806;53.548;9.964;2022-07-29T10:25:06;22.60;99.90
28614;DHT22;15806;53.548;9.964;2022-07-29T10:26:46;22.70;99.90
28614;DHT22;15806;53.548;9.964;2022-07-29T10:28:27;22.80;99.90
28614;DHT22;15806;53.548;9.964;2022-07-29T10:30:09;22.90;99.90
28614;DHT22;15806;53.548;9.964;2022-07-29T10:31:53;22.80;99.90
28614;DHT22;15806;53.548;9.964;2022-07-29T10:35:51;23.00;99.90
28614;DHT22;15806;53.548;9.964;2022-07-29T10:42:24;23.10;99.90
28614;DHT22;15806;53.548;9.964;2022-07-29T10:44:21;23.20;99.90
28614;DHT22;15806;53.548;9.964;2022-07-29T10:46:05;23.40;99.90
28614;DHT22;15806;53.548;9.964;2022-07-29T10:47:45;23.60;99.90
28614;DHT22;15806;53.548;9.964;2022-07-29T10:49:27;23.80;99.90
28614;DHT22;15806;53.548;9.964;2022-07-29T10:51:07;23.90;99.90
28614;DHT22;15806;53.548;9.964;2022-07-29T10:54:46;23.40;99.90
28614;DHT22;15806;53.548;9.964;2022-07-29T10:56:30;23.70;99.90
28614;DHT22;15806;53.548;9.964;2022-07-29T10:58:17;23.80;99.90
28614;DHT22;15806;53.548;9.964;2022-07-29T11:01:53;23.70;99.90
28614;DHT22;15806;53.548;9.964;2022-07-29T11:03:45;23.90;99.90
28614;DHT22;15806;53.548;9.964;2022-07-29T11:05:26;24.00;99.90
28614;DHT22;15806;53.548;9.964;2022-07-29T11:07:10;23.90;99.90
28614;DHT22;15806;53.548;9.964;2022-07-29T11:09:20;24.00;99.90